createdAt,value
2023-04-15T00:00:00.942Z,1000.98
2023-04-15T00:01:00.935Z,1000.97
2023-04-15T00:02:01.012Z,1000.96
2023-04-15T00:03:01.029Z,1000.94
2023-04-15T00:04:00.987Z,1000.93
2023-04-15T00:05:00.910Z,1000.92
2023-04-15T00:06:00.877Z,1000.90
2023-04-15T00:07:00.856Z,1000.90
2023-04-15T00:08:00.870Z,1000.89
2023-04-15T00:09:01.297Z,1000.88
2023-04-15T00:10:00.842Z,1000.88
2023-04-15T00:11:00.819Z,1000.87
2023-04-15T00:12:00.812Z,1000.88
2023-04-15T00:13:00.806Z,1000.86
2023-04-15T00:14:00.826Z,1000.84
2023-04-15T00:15:00.780Z,1000.84
2023-04-15T00:16:00.777Z,1000.83
2023-04-15T00:17:00.812Z,1000.82
2023-04-15T00:18:00.788Z,1000.83
2023-04-15T00:19:00.993Z,1000.82
2023-04-15T00:20:00.742Z,1000.83
2023-04-15T00:21:00.720Z,1000.83
2023-04-15T00:22:00.715Z,1000.82
2023-04-15T00:23:00.708Z,1000.83
2023-04-15T00:24:00.706Z,1000.84
2023-04-15T00:25:00.673Z,1000.84
2023-04-15T00:26:00.679Z,1000.84
2023-04-15T00:27:00.667Z,1000.84
2023-04-15T00:28:00.661Z,1000.84
2023-04-15T00:29:00.864Z,1000.85
2023-04-15T00:30:00.623Z,1000.85
2023-04-15T00:31:00.648Z,1000.84
2023-04-15T00:32:00.603Z,1000.84
2023-04-15T00:33:00.649Z,1000.84
2023-04-15T00:34:00.616Z,1000.84
2023-04-15T00:35:00.575Z,1000.84
2023-04-15T00:36:00.565Z,1000.83
2023-04-15T00:37:00.549Z,1000.82
2023-04-15T00:38:00.581Z,1000.79
2023-04-15T00:39:00.826Z,1000.78
2023-04-15T00:40:00.535Z,1000.79
2023-04-15T00:41:00.530Z,1000.81
2023-04-15T00:42:00.516Z,1000.82
2023-04-15T00:43:00.526Z,1000.83
2023-04-15T00:44:00.568Z,1000.83
2023-04-15T00:45:00.495Z,1000.82
2023-04-15T00:46:00.547Z,1000.81
2023-04-15T00:47:00.451Z,1000.80
2023-04-15T00:48:00.537Z,1000.81
2023-04-15T00:49:00.743Z,1000.79
2023-04-15T00:50:00.474Z,1000.79
2023-04-15T00:51:00.411Z,1000.78
2023-04-15T00:52:00.419Z,1000.77
2023-04-15T00:53:00.384Z,1000.75
2023-04-15T00:54:00.429Z,1000.74
2023-04-15T00:55:00.368Z,1000.72
2023-04-15T00:56:00.364Z,1000.73
2023-04-15T00:57:00.356Z,1000.73
2023-04-15T00:58:00.363Z,1000.74
2023-04-15T00:59:00.516Z,1000.73
2023-04-15T01:00:00.311Z,1000.71
2023-04-15T01:01:00.302Z,1000.71
2023-04-15T01:02:00.432Z,1000.70
2023-04-15T01:03:00.513Z,1000.73
2023-04-15T01:04:00.489Z,1000.74
2023-04-15T01:05:00.682Z,1000.73
2023-04-15T01:06:01.532Z,1000.71
2023-04-15T01:07:00.241Z,1000.70
2023-04-15T01:08:00.230Z,1000.70
2023-04-15T01:09:00.530Z,1000.69
2023-04-15T01:10:00.253Z,1000.67
2023-04-15T01:11:00.207Z,1000.66
2023-04-15T01:12:00.194Z,1000.65
2023-04-15T01:13:00.221Z,1000.64
2023-04-15T01:14:00.157Z,1000.64
2023-04-15T01:15:00.243Z,1000.64
2023-04-15T01:16:00.231Z,1000.64
2023-04-15T01:17:00.187Z,1000.63
2023-04-15T01:18:00.390Z,1000.63
2023-04-15T01:19:00.447Z,1000.62
2023-04-15T01:20:00.132Z,1000.63
2023-04-15T01:21:00.100Z,1000.62
2023-04-15T01:22:00.115Z,1000.61
2023-04-15T01:23:00.097Z,1000.59
2023-04-15T01:24:00.084Z,1000.60
2023-04-15T01:25:00.049Z,1000.59
2023-04-15T01:26:00.055Z,1000.58
2023-04-15T01:27:00.030Z,1000.57
2023-04-15T01:28:00.050Z,1000.57
2023-04-15T01:29:00.214Z,1000.57
2023-04-15T01:30:00.045Z,1000.57
2023-04-15T01:30:59.976Z,1000.57
2023-04-15T01:31:59.993Z,1000.57
2023-04-15T01:33:00.021Z,1000.56
2023-04-15T01:33:59.972Z,1000.57
2023-04-15T01:34:59.954Z,1000.57
2023-04-15T01:35:59.929Z,1000.57
2023-04-15T01:36:59.921Z,1000.58
2023-04-15T01:37:59.954Z,1000.56
2023-04-15T01:39:00.154Z,1000.56
2023-04-15T01:39:59.894Z,1000.57
2023-04-15T01:40:59.879Z,1000.55
2023-04-15T01:41:59.890Z,1000.56
2023-04-15T01:42:59.888Z,1000.55
2023-04-15T01:43:59.857Z,1000.55
2023-04-15T01:44:59.842Z,1000.55
2023-04-15T01:45:59.821Z,1000.55
2023-04-15T01:46:59.926Z,1000.55
2023-04-15T01:47:59.906Z,1000.55
2023-04-15T01:48:59.941Z,1000.54
2023-04-15T01:49:59.804Z,1000.54
2023-04-15T01:50:59.778Z,1000.54
2023-04-15T01:51:59.767Z,1000.53
2023-04-15T01:52:59.796Z,1000.51
2023-04-15T01:53:59.746Z,1000.54
2023-04-15T01:54:59.731Z,1000.52
2023-04-15T01:55:59.734Z,1000.51
2023-04-15T01:56:59.703Z,1000.49
2023-04-15T01:57:59.699Z,1000.48
2023-04-15T01:58:59.984Z,1000.49
2023-04-15T01:59:59.709Z,1000.49
2023-04-15T02:00:59.720Z,1000.47
2023-04-15T02:01:59.687Z,1000.47
2023-04-15T02:02:59.770Z,1000.49
2023-04-15T02:03:59.664Z,1000.47
2023-04-15T02:04:59.672Z,1000.49
2023-04-15T02:05:59.629Z,1000.50
2023-04-15T02:06:59.621Z,1000.49
2023-04-15T02:07:59.639Z,1000.50
2023-04-15T02:08:59.902Z,1000.48
2023-04-15T02:09:59.599Z,1000.46
2023-04-15T02:10:59.561Z,1000.47
2023-04-15T02:11:59.566Z,1000.48
2023-04-15T02:12:59.580Z,1000.49
2023-04-15T02:13:59.536Z,1000.47
2023-04-15T02:14:59.535Z,1000.46
2023-04-15T02:15:59.504Z,1000.47
2023-04-15T02:16:59.612Z,1000.46
2023-04-15T02:17:59.606Z,1000.47
2023-04-15T02:18:59.698Z,1000.47
2023-04-15T02:19:59.486Z,1000.46
2023-04-15T02:20:59.448Z,1000.45
2023-04-15T02:21:59.442Z,1000.44
2023-04-15T02:22:59.440Z,1000.43
2023-04-15T02:23:59.434Z,1000.44
2023-04-15T02:24:59.419Z,1000.43
2023-04-15T02:25:59.396Z,1000.45
2023-04-15T02:26:59.390Z,1000.44
2023-04-15T02:27:59.407Z,1000.45
2023-04-15T02:28:59.580Z,1000.45
2023-04-15T02:29:59.365Z,1000.45
2023-04-15T02:30:59.392Z,1000.45
2023-04-15T02:31:59.396Z,1000.45
2023-04-15T02:32:59.427Z,1000.45
2023-04-15T02:33:59.332Z,1000.44
2023-04-15T02:34:59.328Z,1000.45
2023-04-15T02:35:59.331Z,1000.46
2023-04-15T02:36:59.289Z,1000.45
2023-04-15T02:37:59.294Z,1000.45
2023-04-15T02:38:59.452Z,1000.44
2023-04-15T02:39:59.340Z,1000.44
2023-04-15T02:40:59.254Z,1000.42
2023-04-15T02:41:59.260Z,1000.40
2023-04-15T02:42:59.252Z,1000.41
2023-04-15T02:43:59.234Z,1000.42
2023-04-15T02:44:59.223Z,1000.45
2023-04-15T02:45:59.248Z,1000.47
2023-04-15T02:46:59.177Z,1000.45
2023-04-15T02:47:59.271Z,1000.48
2023-04-15T02:48:59.538Z,1000.48
2023-04-15T02:49:59.149Z,1000.49
2023-04-15T02:50:59.137Z,1000.49
2023-04-15T02:51:59.159Z,1000.49
2023-04-15T02:52:59.119Z,1000.49
2023-04-15T02:53:59.104Z,1000.49
2023-04-15T02:54:59.098Z,1000.51
2023-04-15T02:55:59.083Z,1000.52
2023-04-15T02:56:59.133Z,1000.52
2023-04-15T02:57:59.063Z,1000.52
2023-04-15T02:58:59.140Z,1000.52
2023-04-15T02:59:59.090Z,1000.54
2023-04-15T03:00:59.076Z,1000.53
2023-04-15T03:01:59.069Z,1000.54
2023-04-15T03:02:59.170Z,1000.54
2023-04-15T03:03:59.122Z,1000.54
2023-04-15T03:04:59.010Z,1000.54
2023-04-15T03:05:58.982Z,1000.53
2023-04-15T03:06:59.038Z,1000.56
2023-04-15T03:07:58.965Z,1000.55
2023-04-15T03:08:59.114Z,1000.54
2023-04-15T03:09:58.948Z,1000.54
2023-04-15T03:10:58.949Z,1000.58
2023-04-15T03:11:58.931Z,1000.56
2023-04-15T03:12:58.908Z,1000.57
2023-04-15T03:13:58.889Z,1000.55
2023-04-15T03:14:58.875Z,1000.55
2023-04-15T03:15:58.970Z,1000.56
2023-04-15T03:16:58.886Z,1000.57
2023-04-15T03:17:58.904Z,1000.57
2023-04-15T03:18:58.913Z,1000.57
2023-04-15T03:19:58.867Z,1000.57
2023-04-15T03:20:58.825Z,1000.55
2023-04-15T03:21:58.837Z,1000.56
2023-04-15T03:22:58.857Z,1000.57
2023-04-15T03:23:58.786Z,1000.57
2023-04-15T03:24:58.837Z,1000.58
2023-04-15T03:25:58.764Z,1000.59
2023-04-15T03:26:58.778Z,1000.59
2023-04-15T03:27:58.748Z,1000.59
2023-04-15T03:28:58.917Z,1000.57
2023-04-15T03:29:58.715Z,1000.58
2023-04-15T03:30:58.805Z,1000.60
2023-04-15T03:31:58.712Z,1000.61
2023-04-15T03:32:58.727Z,1000.61
2023-04-15T03:33:58.676Z,1000.59
2023-04-15T03:34:58.686Z,1000.61
2023-04-15T03:35:58.656Z,1000.60
2023-04-15T03:36:58.640Z,1000.61
2023-04-15T03:37:58.629Z,1000.60
2023-04-15T03:38:58.827Z,1000.60
2023-04-15T03:39:58.688Z,1000.59
2023-04-15T03:40:58.623Z,1000.58
2023-04-15T03:41:58.607Z,1000.58
2023-04-15T03:42:58.603Z,1000.57
2023-04-15T03:43:58.573Z,1000.59
2023-04-15T03:44:58.570Z,1000.57
2023-04-15T03:45:59.729Z,1000.55
2023-04-15T03:46:58.586Z,1000.53
2023-04-15T03:48:11.265Z,1000.55
2023-04-15T03:48:58.504Z,1000.55
2023-04-15T03:49:58.457Z,1000.53
2023-04-15T03:50:58.441Z,1000.52
2023-04-15T03:51:58.503Z,1000.55
2023-04-15T03:52:58.497Z,1000.57
2023-04-15T03:53:58.428Z,1000.58
2023-04-15T03:54:58.426Z,1000.56
2023-04-15T03:55:58.403Z,1000.57
2023-04-15T03:56:58.382Z,1000.61
2023-04-15T03:57:58.361Z,1000.60
2023-04-15T03:58:58.704Z,1000.60
2023-04-15T03:59:58.366Z,1000.61
2023-04-15T04:00:58.338Z,1000.61
2023-04-15T04:01:58.523Z,1000.62
2023-04-15T04:02:58.595Z,1000.62
2023-04-15T04:03:58.356Z,1000.64
2023-04-15T04:04:58.317Z,1000.66
2023-04-15T04:05:58.277Z,1000.67
2023-04-15T04:06:58.274Z,1000.68
2023-04-15T04:07:58.272Z,1000.67
2023-04-15T04:08:58.300Z,1000.70
2023-04-15T04:09:58.285Z,1000.70
2023-04-15T04:10:58.242Z,1000.68
2023-04-15T04:11:58.243Z,1000.69
2023-04-15T04:12:58.209Z,1000.68
2023-04-15T04:13:58.212Z,1000.67
2023-04-15T04:15:05.453Z,1000.66
2023-04-15T04:15:58.270Z,1000.65
2023-04-15T04:16:58.228Z,1000.67
2023-04-15T04:17:59.804Z,1000.68
2023-04-15T04:18:58.170Z,1000.69
2023-04-15T04:19:58.170Z,1000.70
2023-04-15T04:20:58.137Z,1000.70
2023-04-15T04:21:58.156Z,1000.68
2023-04-15T04:22:58.195Z,1000.70
2023-04-15T04:23:58.142Z,1000.71
2023-04-15T04:24:58.097Z,1000.71
2023-04-15T04:25:58.117Z,1000.72
2023-04-15T04:26:58.073Z,1000.71
2023-04-15T04:27:58.060Z,1000.72
2023-04-15T04:28:58.066Z,1000.73
2023-04-15T04:29:58.033Z,1000.76
2023-04-15T04:30:58.055Z,1000.74
2023-04-15T04:31:58.054Z,1000.73
2023-04-15T04:32:58.053Z,1000.71
2023-04-15T04:33:57.995Z,1000.70
2023-04-15T04:34:58.013Z,1000.72
2023-04-15T04:35:57.986Z,1000.73
2023-04-15T04:36:57.989Z,1000.73
2023-04-15T04:37:57.942Z,1000.73
2023-04-15T04:38:57.972Z,1000.73
2023-04-15T04:39:57.930Z,1000.72
2023-04-15T04:40:57.949Z,1000.74
2023-04-15T04:41:57.912Z,1000.74
2023-04-15T04:42:57.919Z,1000.76
2023-04-15T04:43:57.908Z,1000.74
2023-04-15T04:44:57.888Z,1000.75
2023-04-15T04:45:57.912Z,1000.77
2023-04-15T04:46:57.858Z,1000.76
2023-04-15T04:47:57.915Z,1000.80
2023-04-15T04:48:57.856Z,1000.80
2023-04-15T04:49:57.838Z,1000.82
2023-04-15T04:50:57.829Z,1000.82
2023-04-15T04:51:57.834Z,1000.82
2023-04-15T04:52:57.825Z,1000.83
2023-04-15T04:53:57.768Z,1000.83
2023-04-15T04:54:57.797Z,1000.84
2023-04-15T04:55:57.779Z,1000.84
2023-04-15T04:56:57.766Z,1000.84
2023-04-15T04:57:57.727Z,1000.84
2023-04-15T04:58:57.765Z,1000.86
2023-04-15T04:59:57.741Z,1000.86
2023-04-15T05:00:57.756Z,1000.89
2023-04-15T05:01:57.718Z,1000.90
2023-04-15T05:02:57.899Z,1000.90
2023-04-15T05:03:57.734Z,1000.92
2023-04-15T05:04:57.671Z,1000.93
2023-04-15T05:05:57.681Z,1000.95
2023-04-15T05:06:57.674Z,1000.98
2023-04-15T05:07:57.624Z,1000.99
2023-04-15T05:08:57.657Z,1001.00
2023-04-15T05:09:57.641Z,1001.00
2023-04-15T05:10:57.652Z,1001.01
2023-04-15T05:11:57.600Z,1001.00
2023-04-15T05:12:57.607Z,1001.01
2023-04-15T05:13:57.566Z,1001.00
2023-04-15T05:14:57.584Z,1001.01
2023-04-15T05:15:57.645Z,1001.02
2023-04-15T05:16:57.543Z,1001.02
2023-04-15T05:17:57.597Z,1001.01
2023-04-15T05:18:57.524Z,1001.02
2023-04-15T05:19:57.522Z,1001.03
2023-04-15T05:20:57.530Z,1001.02
2023-04-15T05:21:57.486Z,1001.02
2023-04-15T05:22:57.501Z,1001.02
2023-04-15T05:23:57.464Z,1001.03
2023-04-15T05:24:57.591Z,1001.05
2023-04-15T05:25:57.495Z,1001.07
2023-04-15T05:26:57.446Z,1001.05
2023-04-15T05:27:57.425Z,1001.08
2023-04-15T05:28:57.454Z,1001.07
2023-04-15T05:29:57.430Z,1001.08
2023-04-15T05:30:57.422Z,1001.10
2023-04-15T05:31:57.389Z,1001.13
2023-04-15T05:32:57.393Z,1001.14
2023-04-15T05:33:57.358Z,1001.12
2023-04-15T05:34:57.380Z,1001.15
2023-04-15T05:35:57.345Z,1001.16
2023-04-15T05:36:57.334Z,1001.16
2023-04-15T05:37:57.333Z,1001.15
2023-04-15T05:38:57.328Z,1001.16
2023-04-15T05:39:57.331Z,1001.17
2023-04-15T05:40:57.308Z,1001.17
2023-04-15T05:41:57.270Z,1001.19
2023-04-15T05:42:57.299Z,1001.15
2023-04-15T05:43:57.266Z,1001.14
2023-04-15T05:44:57.280Z,1001.15
2023-04-15T05:45:57.344Z,1001.12
2023-04-15T05:46:57.252Z,1001.12
2023-04-15T05:47:57.269Z,1001.13
2023-04-15T05:48:57.226Z,1001.11
2023-04-15T05:49:57.252Z,1001.11
2023-04-15T05:50:57.238Z,1001.07
2023-04-15T05:51:57.183Z,1001.06
2023-04-15T05:52:57.202Z,1001.07
2023-04-15T05:53:57.148Z,1001.06
2023-04-15T05:54:57.150Z,1001.06
2023-04-15T05:55:57.147Z,1001.09
2023-04-15T05:56:57.203Z,1001.10
2023-04-15T05:57:57.103Z,1001.10
2023-04-15T05:58:57.124Z,1001.10
2023-04-15T05:59:57.111Z,1001.12
2023-04-15T06:00:57.087Z,1001.12
2023-04-15T06:01:57.095Z,1001.13
2023-04-15T06:02:57.154Z,1001.13
2023-04-15T06:03:57.241Z,1001.14
2023-04-15T06:04:57.110Z,1001.14
2023-04-15T06:05:57.044Z,1001.12
2023-04-15T06:06:57.010Z,1001.12
2023-04-15T06:07:57.004Z,1001.12
2023-04-15T06:08:56.994Z,1001.11
2023-04-15T06:09:57.018Z,1001.11
2023-04-15T06:10:56.976Z,1001.12
2023-04-15T06:11:57.015Z,1001.14
2023-04-15T06:12:56.966Z,1001.12
2023-04-15T06:13:56.952Z,1001.09
2023-04-15T06:14:58.910Z,1001.10
2023-04-15T06:15:56.956Z,1001.11
2023-04-15T06:16:56.927Z,1001.11
2023-04-15T06:17:56.997Z,1001.10
2023-04-15T06:18:56.896Z,1001.10
2023-04-15T06:19:56.907Z,1001.09
2023-04-15T06:20:56.883Z,1001.10
2023-04-15T06:21:56.856Z,1001.09
2023-04-15T06:22:56.843Z,1001.12
2023-04-15T06:23:56.830Z,1001.14
2023-04-15T06:24:56.866Z,1001.13
2023-04-15T06:25:56.804Z,1001.16
2023-04-15T06:26:56.813Z,1001.15
2023-04-15T06:27:56.802Z,1001.16
2023-04-15T06:28:56.799Z,1001.17
2023-04-15T06:29:56.808Z,1001.15
2023-04-15T06:30:56.801Z,1001.15
2023-04-15T06:31:56.813Z,1001.19
2023-04-15T06:32:56.796Z,1001.19
2023-04-15T06:33:56.734Z,1001.17
2023-04-15T06:34:56.744Z,1001.17
2023-04-15T06:35:56.719Z,1001.17
2023-04-15T06:36:56.728Z,1001.21
2023-04-15T06:37:56.713Z,1001.22
2023-04-15T06:38:56.700Z,1001.23
2023-04-15T06:39:56.690Z,1001.25
2023-04-15T06:40:56.673Z,1001.27
2023-04-15T06:41:56.664Z,1001.29
2023-04-15T06:42:56.638Z,1001.31
2023-04-15T06:43:56.619Z,1001.33
2023-04-15T06:44:56.626Z,1001.35
2023-04-15T06:45:56.633Z,1001.35
2023-04-15T06:46:56.643Z,1001.36
2023-04-15T06:47:56.629Z,1001.38
2023-04-15T06:48:56.576Z,1001.39
2023-04-15T06:49:56.600Z,1001.38
2023-04-15T06:50:56.596Z,1001.38
2023-04-15T06:51:56.668Z,1001.39
2023-04-15T06:52:56.545Z,1001.41
2023-04-15T06:53:56.539Z,1001.43
2023-04-15T06:54:56.544Z,1001.43
2023-04-15T06:55:56.587Z,1001.45
2023-04-15T06:56:56.498Z,1001.48
2023-04-15T06:57:56.484Z,1001.47
2023-04-15T06:58:56.469Z,1001.49
2023-04-15T06:59:56.456Z,1001.51
2023-04-15T07:00:56.444Z,1001.51
2023-04-15T07:01:56.512Z,1001.50
2023-04-15T07:02:56.446Z,1001.51
2023-04-15T07:03:56.413Z,1001.54
2023-04-15T07:04:56.466Z,1001.55
2023-04-15T07:05:56.386Z,1001.58
2023-04-15T07:06:56.493Z,1001.61
2023-04-15T07:07:56.456Z,1001.59
2023-04-15T07:08:56.354Z,1001.61
2023-04-15T07:09:56.369Z,1001.60
2023-04-15T07:10:56.459Z,1001.62
2023-04-15T07:11:56.329Z,1001.66
2023-04-15T07:12:56.358Z,1001.65
2023-04-15T07:13:56.333Z,1001.68
2023-04-15T07:14:56.345Z,1001.69
2023-04-15T07:15:56.278Z,1001.69
2023-04-15T07:16:56.330Z,1001.69
2023-04-15T07:17:56.417Z,1001.67
2023-04-15T07:18:56.254Z,1001.68
2023-04-15T07:19:56.293Z,1001.69
2023-04-15T07:20:56.246Z,1001.71
2023-04-15T07:21:56.254Z,1001.74
2023-04-15T07:22:56.232Z,1001.72
2023-04-15T07:23:56.182Z,1001.77
2023-04-15T07:24:56.225Z,1001.77
2023-04-15T07:25:56.186Z,1001.79
2023-04-15T07:26:56.850Z,1001.78
2023-04-15T07:27:56.190Z,1001.79
2023-04-15T07:28:56.151Z,1001.82
2023-04-15T07:29:56.158Z,1001.83
2023-04-15T07:30:56.173Z,1001.82
2023-04-15T07:31:56.110Z,1001.82
2023-04-15T07:32:56.134Z,1001.81
2023-04-15T07:33:56.091Z,1001.81
2023-04-15T07:34:56.430Z,1001.82
2023-04-15T07:35:56.092Z,1001.84
2023-04-15T07:36:56.065Z,1001.83
2023-04-15T07:37:56.036Z,1001.87
2023-04-15T07:38:56.094Z,1001.87
2023-04-15T07:39:56.103Z,1001.92
2023-04-15T07:40:56.038Z,1001.90
2023-04-15T07:41:56.019Z,1001.92
2023-04-15T07:42:56.069Z,1001.94
2023-04-15T07:43:55.985Z,1001.93
2023-04-15T07:44:56.010Z,1001.92
2023-04-15T07:45:56.042Z,1001.90
2023-04-15T07:46:55.951Z,1001.94
2023-04-15T07:47:56.096Z,1001.93
2023-04-15T07:48:55.935Z,1001.91
2023-04-15T07:49:55.932Z,1001.90
2023-04-15T07:50:55.933Z,1001.94
2023-04-15T07:51:55.896Z,1001.93
2023-04-15T07:52:55.931Z,1001.93
2023-04-15T07:53:55.900Z,1001.95
2023-04-15T07:54:55.882Z,1001.95
2023-04-15T07:55:55.884Z,1001.96
2023-04-15T07:56:55.874Z,1001.92
2023-04-15T07:57:55.850Z,1001.95
2023-04-15T07:58:55.854Z,1001.96
2023-04-15T07:59:55.887Z,1001.98
2023-04-15T08:00:55.820Z,1001.95
2023-04-15T08:01:55.863Z,1001.96
2023-04-15T08:02:55.886Z,1001.96
2023-04-15T08:03:55.945Z,1001.96
2023-04-15T08:04:55.807Z,1001.97
2023-04-15T08:05:55.821Z,1001.96
2023-04-15T08:06:55.756Z,1001.96
2023-04-15T08:07:55.795Z,1002.00
2023-04-15T08:08:55.730Z,1001.99
2023-04-15T08:09:55.758Z,1002.01
2023-04-15T08:10:55.708Z,1002.02
2023-04-15T08:11:55.685Z,1002.03
2023-04-15T08:12:55.738Z,1002.05
2023-04-15T08:13:55.701Z,1002.06
2023-04-15T08:14:55.712Z,1002.08
2023-04-15T08:15:55.711Z,1002.08
2023-04-15T08:16:55.646Z,1002.08
2023-04-15T08:17:55.654Z,1002.09
2023-04-15T08:18:55.612Z,1002.09
2023-04-15T08:19:55.690Z,1002.08
2023-04-15T08:20:55.607Z,1002.08
2023-04-15T08:21:55.621Z,1002.08
2023-04-15T08:22:55.563Z,1002.10
2023-04-15T08:23:55.581Z,1002.09
2023-04-15T08:24:55.659Z,1002.10
2023-04-15T08:25:55.554Z,1002.13
2023-04-15T08:26:55.520Z,1002.13
2023-04-15T08:27:55.533Z,1002.12
2023-04-15T08:28:55.497Z,1002.13
2023-04-15T08:29:55.521Z,1002.12
2023-04-15T08:30:55.487Z,1002.15
2023-04-15T08:31:55.529Z,1002.14
2023-04-15T08:32:55.475Z,1002.15
2023-04-15T08:33:55.473Z,1002.14
2023-04-15T08:34:55.465Z,1002.17
2023-04-15T08:35:55.435Z,1002.18
2023-04-15T08:36:55.435Z,1002.17
2023-04-15T08:37:55.431Z,1002.19
2023-04-15T08:38:55.392Z,1002.20
2023-04-15T08:39:55.452Z,1002.20
2023-04-15T08:40:55.406Z,1002.21
2023-04-15T08:41:55.372Z,1002.24
2023-04-15T08:42:55.489Z,1002.22
2023-04-15T08:43:55.384Z,1002.26
2023-04-15T08:44:55.410Z,1002.26
2023-04-15T08:45:55.379Z,1002.26
2023-04-15T08:46:55.385Z,1002.25
2023-04-15T08:47:55.343Z,1002.27
2023-04-15T08:48:55.373Z,1002.30
2023-04-15T08:49:55.353Z,1002.31
2023-04-15T08:50:55.276Z,1002.30
2023-04-15T08:51:55.307Z,1002.30
2023-04-15T08:52:55.293Z,1002.30
2023-04-15T08:53:55.276Z,1002.29
2023-04-15T08:54:55.241Z,1002.31
2023-04-15T08:55:55.235Z,1002.32
2023-04-15T08:56:55.251Z,1002.30
2023-04-15T08:57:55.260Z,1002.26
2023-04-15T08:58:55.304Z,1002.29
2023-04-15T08:59:55.216Z,1002.29
2023-04-15T09:00:55.285Z,1002.29
2023-04-15T09:01:55.253Z,1002.30
2023-04-15T09:02:55.292Z,1002.28
2023-04-15T09:03:55.338Z,1002.29
2023-04-15T09:04:55.186Z,1002.30
2023-04-15T09:05:55.210Z,1002.30
2023-04-15T09:06:55.162Z,1002.28
2023-04-15T09:07:55.205Z,1002.29
2023-04-15T09:08:55.208Z,1002.32
2023-04-15T09:09:55.114Z,1002.32
2023-04-15T09:10:55.125Z,1002.33
2023-04-15T09:11:55.062Z,1002.31
2023-04-15T09:12:55.053Z,1002.32
2023-04-15T09:13:55.068Z,1002.34
2023-04-15T09:14:55.064Z,1002.35
2023-04-15T09:15:55.010Z,1002.36
2023-04-15T09:16:55.100Z,1002.37
2023-04-15T09:17:55.018Z,1002.33
2023-04-15T09:18:55.084Z,1002.39
2023-04-15T09:19:55.019Z,1002.37
2023-04-15T09:20:54.979Z,1002.36
2023-04-15T09:21:57.330Z,1002.40
2023-04-15T09:22:54.943Z,1002.39
2023-04-15T09:23:54.932Z,1002.42
2023-04-15T09:24:54.934Z,1002.41
2023-04-15T09:25:54.905Z,1002.43
2023-04-15T09:26:54.982Z,1002.43
2023-04-15T09:27:54.877Z,1002.43
2023-04-15T09:28:54.916Z,1002.45
2023-04-15T09:29:54.879Z,1002.45
2023-04-15T09:30:54.931Z,1002.49
2023-04-15T09:31:54.866Z,1002.50
2023-04-15T09:32:54.834Z,1002.52
2023-04-15T09:33:54.816Z,1002.51
2023-04-15T09:34:54.807Z,1002.54
2023-04-15T09:35:54.824Z,1002.55
2023-04-15T09:36:54.801Z,1002.56
2023-04-15T09:37:54.792Z,1002.60
2023-04-15T09:38:54.782Z,1002.59
2023-04-15T09:39:54.802Z,1002.61
2023-04-15T09:40:54.758Z,1002.63
2023-04-15T09:41:54.766Z,1002.62
2023-04-15T09:42:54.714Z,1002.62
2023-04-15T09:43:54.724Z,1002.62
2023-04-15T09:44:54.751Z,1002.63
2023-04-15T09:45:54.725Z,1002.64
2023-04-15T09:46:54.779Z,1002.63
2023-04-15T09:47:56.172Z,1002.64
2023-04-15T09:48:54.655Z,1002.65
2023-04-15T09:49:54.753Z,1002.65
2023-04-15T09:50:54.647Z,1002.68
2023-04-15T09:52:04.565Z,1002.69
2023-04-15T09:52:54.620Z,1002.69
2023-04-15T09:53:54.620Z,1002.71
2023-04-15T09:54:54.594Z,1002.71
2023-04-15T09:55:54.766Z,1002.70
2023-04-15T09:56:54.563Z,1002.71
2023-04-15T09:57:54.564Z,1002.73
2023-04-15T09:58:54.557Z,1002.71
2023-04-15T09:59:54.551Z,1002.72
2023-04-15T10:00:54.572Z,1002.75
2023-04-15T10:01:54.601Z,1002.76
2023-04-15T10:02:54.710Z,1002.75
2023-04-15T10:03:54.654Z,1002.78
2023-04-15T10:04:54.497Z,1002.78
2023-04-15T10:05:54.485Z,1002.83
2023-04-15T10:06:54.548Z,1002.81
2023-04-15T10:07:54.481Z,1002.82
2023-04-15T10:08:54.519Z,1002.82
2023-04-15T10:09:54.501Z,1002.82
2023-04-15T10:10:54.460Z,1002.84
2023-04-15T10:11:54.422Z,1002.84
2023-04-15T10:12:54.405Z,1002.85
2023-04-15T10:13:54.429Z,1002.84
2023-04-15T10:14:54.411Z,1002.85
2023-04-15T10:16:00.468Z,1002.85
2023-04-15T10:16:54.356Z,1002.86
2023-04-15T10:17:54.405Z,1002.87
2023-04-15T10:18:54.432Z,1002.89
2023-04-15T10:19:54.344Z,1002.89
2023-04-15T10:20:54.307Z,1002.90
2023-04-15T10:21:54.324Z,1002.91
2023-04-15T10:22:54.301Z,1002.92
2023-04-15T10:23:54.312Z,1002.94
2023-04-15T10:24:54.267Z,1002.94
2023-04-15T10:25:54.286Z,1002.92
2023-04-15T10:26:54.258Z,1002.93
2023-04-15T10:27:54.311Z,1002.94
2023-04-15T10:28:54.228Z,1002.94
2023-04-15T10:29:54.225Z,1002.92
2023-04-15T10:30:54.240Z,1002.91
2023-04-15T10:31:54.210Z,1002.91
2023-04-15T10:32:54.267Z,1002.91
2023-04-15T10:33:54.196Z,1002.91
2023-04-15T10:34:54.698Z,1002.91
2023-04-15T10:35:54.163Z,1002.90
2023-04-15T10:36:54.157Z,1002.92
2023-04-15T10:37:54.133Z,1002.92
2023-04-15T10:38:54.126Z,1002.94
2023-04-15T10:39:54.167Z,1002.94
2023-04-15T10:40:54.109Z,1002.94
2023-04-15T10:41:54.109Z,1002.95
2023-04-15T10:42:54.095Z,1002.94
2023-04-15T10:43:54.095Z,1002.96
2023-04-15T10:44:54.058Z,1002.95
2023-04-15T10:45:54.087Z,1002.96
2023-04-15T10:46:54.126Z,1002.97
2023-04-15T10:47:54.114Z,1002.96
2023-04-15T10:48:54.053Z,1002.97
2023-04-15T10:49:54.073Z,1002.97
2023-04-15T10:50:53.992Z,1002.99
2023-04-15T10:51:54.041Z,1003.00
2023-04-15T10:52:54.212Z,1003.00
2023-04-15T10:53:53.977Z,1003.01
2023-04-15T10:54:54.018Z,1003.00
2023-04-15T10:55:53.952Z,1003.01
2023-04-15T10:56:53.925Z,1003.02
2023-04-15T10:57:54.048Z,1003.03
2023-04-15T10:58:53.968Z,1003.05
2023-04-15T10:59:53.947Z,1003.05
2023-04-15T11:00:53.914Z,1003.05
2023-04-15T11:01:53.974Z,1003.05
2023-04-15T11:02:54.032Z,1003.09
2023-04-15T11:03:54.035Z,1003.10
2023-04-15T11:04:54.069Z,1003.11
2023-04-15T11:05:53.843Z,1003.11
2023-04-15T11:06:53.820Z,1003.13
2023-04-15T11:07:53.846Z,1003.14
2023-04-15T11:08:53.807Z,1003.14
2023-04-15T11:09:53.807Z,1003.15
2023-04-15T11:10:53.779Z,1003.17
2023-04-15T11:11:53.802Z,1003.21
2023-04-15T11:12:53.828Z,1003.20
2023-04-15T11:13:53.758Z,1003.26
2023-04-15T11:14:53.745Z,1003.21
2023-04-15T11:15:53.724Z,1003.22
2023-04-15T11:16:53.723Z,1003.23
2023-04-15T11:17:53.780Z,1003.24
2023-04-15T11:18:53.705Z,1003.21
2023-04-15T11:19:53.736Z,1003.24
2023-04-15T11:20:53.680Z,1003.26
2023-04-15T11:21:53.662Z,1003.24
2023-04-15T11:23:14.110Z,1003.27
2023-04-15T11:23:53.643Z,1003.29
2023-04-15T11:24:53.643Z,1003.28
2023-04-15T11:25:53.635Z,1003.30
2023-04-15T11:26:53.602Z,1003.33
2023-04-15T11:27:53.605Z,1003.34
2023-04-15T11:28:53.582Z,1003.35
2023-04-15T11:29:53.627Z,1003.36
2023-04-15T11:30:53.563Z,1003.36
2023-04-15T11:31:53.611Z,1003.38
2023-04-15T11:32:53.596Z,1003.39
2023-04-15T11:33:53.534Z,1003.42
2023-04-15T11:34:53.512Z,1003.42
2023-04-15T11:35:53.521Z,1003.44
2023-04-15T11:36:53.520Z,1003.45
2023-04-15T11:37:53.500Z,1003.46
2023-04-15T11:38:53.526Z,1003.46
2023-04-15T11:39:53.488Z,1003.48
2023-04-15T11:40:53.466Z,1003.48
2023-04-15T11:41:53.475Z,1003.49
2023-04-15T11:42:53.435Z,1003.48
2023-04-15T11:43:53.432Z,1003.50
2023-04-15T11:44:53.417Z,1003.50
2023-04-15T11:45:53.522Z,1003.51
2023-04-15T11:46:53.412Z,1003.52
2023-04-15T11:47:53.449Z,1003.53
2023-04-15T11:48:53.372Z,1003.56
2023-04-15T11:49:53.359Z,1003.57
2023-04-15T11:50:53.359Z,1003.58
2023-04-15T11:51:53.357Z,1003.61
2023-04-15T11:52:53.355Z,1003.62
2023-04-15T11:53:53.338Z,1003.62
2023-04-15T11:54:53.324Z,1003.63
2023-04-15T11:55:53.335Z,1003.66
2023-04-15T11:56:53.297Z,1003.66
2023-04-15T11:57:53.293Z,1003.65
2023-04-15T11:58:53.264Z,1003.67
2023-04-15T11:59:53.259Z,1003.68
2023-04-15T12:00:53.268Z,1003.68
2023-04-15T12:01:53.281Z,1003.70
2023-04-15T12:02:53.332Z,1003.68
2023-04-15T12:03:53.316Z,1003.68
2023-04-15T12:04:53.270Z,1003.69